Notice: Undefined index: station in /home3/dimtiris/public_html/webApp/metar/index.php on line 4

Metar

Weather conditions for all airports of the world. Just type the ICAO code of an airport.

LGAV 222120Z 18012KT 9999 -RA FEW025 BKN080 20/17 Q1005 TEMPO RA

STATION LGAV
OBSERVED Wed Oct 22, 15:20 MDT
NOW Wed Oct 22, 15:38 MDT
AGE 18 min ago
WIND S at 14 mph
VISIBILITY 16 miles
CONDITIONS light rain
CLOUDS mostly cloudy
TEMP 68°F (20°C)
DEWPT 63°F (17°C)
HUMIDITY 83%
BAROMETER 1005 hPa (29.68 in Hg)

Get weather info from other station:

Some ICAO codes to try: